Time;durP1;ratioP1;P1;durP2;ratioP2;P2;SDS_P1;SDS_P2;PMS_P1;PMS_P2;Temp;Humidity;BMP_temperature;BMP_pressure;BME280_temperature;BME280_humidity;BME280_pressure;Samples;Min_cycle;Max_cycle;Signal;HPM_P1;HPM_P2
2022/01/23 00:02:09;;;;;;;;;41.25;34.75;;;;;8.66;59.87;103202.84;4916332;28;45593;-72
2022/01/23 00:04:35;;;;;;;;;36.50;35.25;;;;;8.68;59.77;103205.53;4923311;28;45511;-72
2022/01/23 00:07:06;;;;;;;;;45.75;36.00;;;;;8.68;60.27;103206.41;4923394;28;45405;-72
2022/01/23 00:09:32;;;;;;;;;46.00;35.75;;;;;8.64;60.08;103209.03;4922741;28;45436;-72
2022/01/23 00:11:59;;;;;;;;;47.50;38.50;;;;;8.49;59.79;103207.03;4922610;28;45316;-72
2022/01/23 00:17:18;;;;;;;;;42.75;37.00;;;;;8.57;60.17;103217.78;4922492;28;45426;-71
2022/01/23 00:19:56;;;;;;;;;39.75;35.75;;;;;8.52;60.27;103199.09;4920553;28;45287;-72
2022/01/23 00:22:27;;;;;;;;;39.75;33.75;;;;;8.60;60.26;103207.19;4923151;28;45400;-72
2022/01/23 00:30:31;;;;;;;;;38.25;36.25;;;;;8.68;60.25;103206.41;4923246;28;45308;-72
2022/01/23 00:33:03;;;;;;;;;41.50;34.75;;;;;8.61;60.36;103182.34;4923107;28;45427;-72
2022/01/23 00:35:30;;;;;;;;;48.00;39.00;;;;;8.72;60.03;103199.41;4923076;28;45324;-72
2022/01/23 00:37:57;;;;;;;;;42.50;36.75;;;;;8.72;60.11;103196.72;4923316;28;45151;-72
2022/01/23 00:40:25;;;;;;;;;39.00;37.00;;;;;8.69;60.32;103184.25;4922729;28;45455;-72
2022/01/23 00:42:53;;;;;;;;;38.00;35.50;;;;;8.75;60.08;103194.09;4907379;28;45324;-72
2022/01/23 00:48:04;;;;;;;;;54.50;41.25;;;;;8.79;59.93;103192.41;4923042;28;45284;-72
2022/01/23 00:50:34;;;;;;;;;40.00;37.75;;;;;8.67;60.12;103170.03;4922748;28;45487;-72
2022/01/23 00:53:01;;;;;;;;;51.00;40.00;;;;;8.77;60.14;103176.38;4922752;28;45510;-71
2022/01/23 00:55:26;;;;;;;;;43.50;36.25;;;;;8.74;60.09;103183.41;4922032;28;46654;-72
2022/01/23 00:57:52;;;;;;;;;45.00;36.25;;;;;8.71;60.24;103184.28;4922882;28;45291;-71
2022/01/23 01:00:18;;;;;;;;;42.75;36.75;;;;;8.70;60.34;103178.06;4920565;28;45435;-72
2022/01/23 01:02:43;;;;;;;;;40.00;37.00;;;;;8.64;60.71;103167.31;4914824;28;45482;-72
2022/01/23 01:05:10;;;;;;;;;40.75;32.25;;;;;8.74;60.14;103172.75;4922514;28;45998;-72
2022/01/23 01:07:35;;;;;;;;;40.75;37.25;;;;;8.73;60.19;103169.22;4902355;29;45889;-72
2022/01/23 01:10:07;;;;;;;;;43.25;39.50;;;;;8.72;59.96;103167.44;4920917;28;45598;-72
2022/01/23 01:12:41;;;;;;;;;48.75;39.25;;;;;8.69;60.02;103172.72;4922847;28;45303;-72
2022/01/23 01:36:38;;;;;;;;;34.75;32.25;;;;;8.63;60.16;103162.84;4909809;28;45476;-71
2022/01/23 01:39:05;;;;;;;;;40.00;33.75;;;;;8.71;59.92;103169.19;4921933;28;45302;-71
2022/01/23 01:41:33;;;;;;;;;37.00;35.00;;;;;8.74;59.65;103168.34;4922360;28;45336;-71
2022/01/23 01:43:59;;;;;;;;;37.25;33.00;;;;;8.71;59.77;103169.19;4921862;28;45415;-72
2022/01/23 01:46:25;;;;;;;;;42.50;37.50;;;;;8.67;59.82;103156.72;4921728;28;46217;-72
2022/01/23 01:48:51;;;;;;;;;45.00;37.75;;;;;8.60;59.88;103148.59;4921999;28;45350;-72
2022/01/23 01:51:17;;;;;;;;;41.50;35.50;;;;;8.66;60.12;103164.69;4904600;28;45464;-72
2022/01/23 01:53:49;;;;;;;;;32.25;30.75;;;;;8.64;59.98;103162.00;4901592;28;45363;-72
2022/01/23 01:56:15;;;;;;;;;36.50;27.75;;;;;8.58;59.93;103159.22;4914869;28;46669;-72
2022/01/23 02:09:15;;;;;;;;;36.25;30.00;;;;;8.36;60.18;103160.66;4925099;28;45388;-72
2022/01/23 02:17:27;;;;;;;;;39.25;31.00;;;;;8.42;60.21;103163.41;4925115;28;45484;-72
2022/01/23 02:23:20;;;;;;;;;40.50;37.00;;;;;8.41;60.59;103163.38;4925237;28;45366;-71
2022/01/23 02:52:48;;;;;;;;;39.75;32.00;;;;;8.18;60.31;103128.44;4924544;28;45536;-71
2022/01/23 02:55:24;;;;;;;;;34.00;29.50;;;;;8.05;60.14;103117.59;4923942;28;45430;-71
2022/01/23 02:57:59;;;;;;;;;32.75;25.75;;;;;8.16;60.14;103126.63;4924125;28;45377;-72
2022/01/23 03:00:32;;;;;;;;;31.00;27.00;;;;;8.09;60.12;103122.09;4914686;28;46191;-72
2022/01/23 03:03:05;;;;;;;;;29.25;28.50;;;;;8.10;60.26;103128.28;4924094;28;45334;-72
2022/01/23 03:08:18;;;;;;;;;32.25;31.00;;;;;8.07;60.39;103117.59;4916855;28;45609;-71
2022/01/23 03:10:48;;;;;;;;;35.50;30.50;;;;;8.08;60.33;103112.31;4913183;28;46191;-71
2022/01/23 03:27:00;;;;;;;;;37.75;32.25;;;;;7.98;60.22;103099.72;4923430;28;45480;-72
2022/01/23 03:29:29;;;;;;;;;36.50;31.00;;;;;8.06;60.54;103118.50;4906999;28;45347;-71
2022/01/23 03:34:23;;;;;;;;;23.25;21.00;;;;;8.01;60.29;103117.53;4924178;28;45379;-71
2022/01/23 03:36:49;;;;;;;;;30.50;25.75;;;;;7.95;60.37;103116.56;4923940;28;45257;-71
2022/01/23 03:39:14;;;;;;;;;35.50;30.00;;;;;7.87;60.73;103103.97;4923833;28;45305;-72
2022/01/23 03:41:42;;;;;;;;;38.00;31.25;;;;;7.83;60.63;103096.84;4918612;28;45336;-72
2022/01/23 03:44:10;;;;;;;;;32.25;29.00;;;;;7.83;60.40;103094.16;4906439;28;45335;-72
2022/01/23 03:51:51;;;;;;;;;34.75;29.00;;;;;7.79;60.74;103101.22;4923805;28;45806;-72
2022/01/23 03:54:17;;;;;;;;;35.00;30.25;;;;;7.73;60.31;103096.66;4923373;28;45201;-72
2022/01/23 03:56:42;;;;;;;;;36.50;32.00;;;;;7.66;60.71;103088.56;4923121;28;45296;-71
2022/01/23 03:59:07;;;;;;;;;33.00;28.00;;;;;7.78;60.73;103102.06;4923386;28;45671;-71
2022/01/23 04:01:33;;;;;;;;;28.75;24.75;;;;;7.77;60.88;103101.19;4923124;28;45447;-71
2022/01/23 04:04:02;;;;;;;;;37.75;31.75;;;;;7.78;60.85;103107.38;4902169;28;45368;-71
2022/01/23 04:06:27;;;;;;;;;32.00;27.25;;;;;7.76;60.96;103082.53;4917136;28;45435;-71
2022/01/23 04:08:53;;;;;;;;;31.50;30.75;;;;;7.85;61.27;103088.03;4923222;28;45249;-71
2022/01/23 04:11:18;;;;;;;;;35.25;32.25;;;;;7.91;61.06;103093.41;4922509;28;45982;-71
2022/01/23 04:13:49;;;;;;;;;30.00;25.50;;;;;7.85;61.22;103065.84;4922461;28;45342;-71
2022/01/23 04:31:43;;;;;;;;;33.50;27.50;;;;;8.00;60.89;103092.66;4919530;28;45395;-74
2022/01/23 04:59:48;;;;;;;;;32.00;27.75;;;;;7.88;61.08;103092.47;4922858;28;45225;-73
2022/01/23 05:03:28;;;;;;;;;33.75;28.50;;;;;7.86;60.98;103078.28;4886069;28;45515;-73
2022/01/23 05:04:59;;;;;;;;;35.25;30.00;;;;;7.90;61.09;103096.97;4908771;28;45881;-72
2022/01/23 05:07:29;;;;;;;;;33.00;30.25;;;;;7.95;60.76;103097.94;4922655;28;45343;-72
2022/01/23 05:09:55;;;;;;;;;37.50;26.00;;;;;7.95;60.57;103094.34;4922355;28;45379;-72
2022/01/23 05:12:27;;;;;;;;;32.25;29.50;;;;;7.95;60.71;103100.59;4905480;28;45526;-72
2022/01/23 05:14:52;;;;;;;;;29.75;24.00;;;;;7.94;60.58;103092.59;4922415;28;47146;-72
2022/01/23 05:17:19;;;;;;;;;33.25;27.00;;;;;7.78;60.82;103083.44;4922586;28;45216;-72
2022/01/23 05:19:44;;;;;;;;;29.25;29.25;;;;;7.72;60.64;103083.38;4920287;28;45687;-72
2022/01/23 05:22:20;;;;;;;;;31.50;27.50;;;;;7.72;60.82;103100.22;4915173;28;45321;-72
2022/01/23 05:24:57;;;;;;;;;37.75;28.50;;;;;7.69;61.05;103096.59;4909844;28;45509;-72
2022/01/23 05:27:23;;;;;;;;;26.75;24.00;;;;;7.69;60.98;103109.91;4921469;28;45722;-72
2022/01/23 05:29:50;;;;;;;;;26.25;20.25;;;;;7.63;60.64;103115.09;4922376;28;45238;-72
2022/01/23 05:32:16;;;;;;;;;27.75;22.25;;;;;7.54;60.83;103116.72;4922406;28;45487;-72
2022/01/23 05:34:42;;;;;;;;;24.00;18.25;;;;;7.50;60.81;103121.94;4922076;28;46064;-72
2022/01/23 05:37:08;;;;;;;;;23.50;21.25;;;;;7.47;61.02;103116.56;4920849;28;45716;-72
2022/01/23 05:39:34;;;;;;;;;24.00;23.25;;;;;7.42;61.08;103100.56;4922083;28;45340;-72
2022/01/23 05:42:07;;;;;;;;;29.50;25.25;;;;;7.47;61.08;103108.59;4922000;28;45384;-72
2022/01/23 05:44:35;;;;;;;;;29.75;25.25;;;;;7.43;61.30;103110.31;4921884;28;46337;-72
2022/01/23 05:47:00;;;;;;;;;28.00;23.75;;;;;7.38;61.43;103090.72;4922096;28;45777;-72
2022/01/23 05:49:26;;;;;;;;;24.50;22.75;;;;;7.50;61.37;103116.63;4905053;28;45336;-72
2022/01/23 05:51:52;;;;;;;;;29.50;24.75;;;;;7.48;61.48;103123.69;4921869;28;45484;-72
2022/01/23 05:54:17;;;;;;;;;28.25;23.25;;;;;7.47;61.04;103120.13;4917904;28;45361;-72
2022/01/23 05:56:42;;;;;;;;;30.25;28.25;;;;;7.37;61.55;103102.25;4917934;28;45337;-72
2022/01/23 05:59:08;;;;;;;;;30.50;27.00;;;;;7.39;61.17;103106.69;4921739;28;45356;-72
2022/01/23 06:01:33;;;;;;;;;24.25;20.00;;;;;7.46;61.57;103115.69;4922024;28;45531;-72
2022/01/23 06:03:59;;;;;;;;;29.75;28.75;;;;;7.46;61.62;103113.03;4921536;28;46162;-72
2022/01/23 06:06:24;;;;;;;;;31.75;28.00;;;;;7.47;61.57;103113.91;4921974;28;45309;-72
2022/01/23 06:08:49;;;;;;;;;28.00;24.75;;;;;7.35;61.54;103104.88;4921867;28;45209;-72
2022/01/23 06:11:16;;;;;;;;;27.75;24.25;;;;;7.41;61.34;103120.91;4920267;28;45574;-72
2022/01/23 06:13:41;;;;;;;;;27.00;27.00;;;;;7.34;61.53;103128.75;4921865;28;45400;-72
2022/01/23 06:16:07;;;;;;;;;27.75;25.75;;;;;7.25;61.30;103118.84;4921799;28;45408;-72
2022/01/23 06:18:35;;;;;;;;;23.25;20.00;;;;;7.19;61.94;103111.63;4921955;28;45278;-72
2022/01/23 06:21:01;;;;;;;;;28.00;22.25;;;;;7.19;61.48;103116.06;4921551;28;45478;-72
2022/01/23 06:23:29;;;;;;;;;22.50;19.75;;;;;7.23;61.61;103116.16;4909602;28;45388;-72
2022/01/23 06:25:56;;;;;;;;;22.25;17.75;;;;;7.17;61.10;103094.78;4919461;28;45483;-73
2022/01/23 06:28:41;;;;;;;;;26.75;19.25;;;;;7.30;61.98;103119.81;4921974;28;45353;-73
2022/01/23 06:31:07;;;;;;;;;20.75;17.75;;;;;7.34;61.83;103112.81;4899576;29;45520;-73
2022/01/23 06:33:34;;;;;;;;;11.00;11.00;;;;;7.30;61.73;103109.19;4914000;28;45386;-73
2022/01/23 06:35:59;;;;;;;;;17.00;14.25;;;;;7.25;61.84;103105.56;4921603;28;45638;-73
2022/01/23 06:38:25;;;;;;;;;18.00;15.50;;;;;7.18;61.44;103111.59;4921505;28;45391;-73
2022/01/23 06:40:50;;;;;;;;;19.75;16.25;;;;;7.20;61.81;103107.19;4920979;28;45244;-73
2022/01/23 06:43:15;;;;;;;;;14.50;13.25;;;;;7.28;61.52;103126.84;4920072;28;45293;-72
2022/01/23 06:45:41;;;;;;;;;18.00;13.00;;;;;7.29;61.88;103128.66;4919863;28;45542;-72
2022/01/23 06:48:06;;;;;;;;;16.75;15.25;;;;;7.29;61.68;103115.38;4924916;28;45468;-72
2022/01/23 06:50:32;;;;;;;;;14.50;14.50;;;;;7.19;61.57;103105.44;4924471;28;45269;-72
2022/01/23 06:52:58;;;;;;;;;19.50;15.50;;;;;7.26;61.63;103111.75;4924615;28;45610;-72
2022/01/23 06:55:23;;;;;;;;;17.75;15.75;;;;;7.21;61.81;103101.03;4920083;28;45496;-73
2022/01/23 06:57:48;;;;;;;;;22.75;19.00;;;;;7.33;61.79;103121.63;4923878;28;45331;-73
2022/01/23 07:00:14;;;;;;;;;19.75;18.75;;;;;7.34;61.75;103119.00;4917591;28;45556;-73
2022/01/23 07:02:40;;;;;;;;;17.00;15.00;;;;;7.37;61.54;103123.50;4924108;28;45922;-73
2022/01/23 07:05:05;;;;;;;;;9.50;8.00;;;;;7.38;61.05;103131.50;4924695;28;45270;-72
2022/01/23 07:07:31;;;;;;;;;15.00;12.75;;;;;7.24;61.20;103123.25;4924450;28;45374;-72
2022/01/23 07:09:56;;;;;;;;;19.75;14.00;;;;;7.30;60.97;103137.50;4924347;28;45309;-72
2022/01/23 07:12:21;;;;;;;;;19.00;13.00;;;;;7.22;61.13;103126.75;4924152;28;46125;-72
2022/01/23 07:14:47;;;;;;;;;17.50;15.50;;;;;7.23;61.56;103132.09;4921850;28;45225;-73
2022/01/23 07:17:12;;;;;;;;;17.25;14.25;;;;;7.22;61.69;103121.44;4922554;28;45384;-72
2022/01/23 07:19:38;;;;;;;;;15.50;14.75;;;;;7.29;61.84;103131.31;4924348;28;45523;-73
2022/01/23 07:22:03;;;;;;;;;21.50;19.25;;;;;7.32;61.45;103130.47;4921205;28;45583;-73
2022/01/23 07:24:29;;;;;;;;;13.00;13.00;;;;;7.30;61.85;103113.59;4916405;28;45331;-73
2022/01/23 07:26:54;;;;;;;;;20.00;16.25;;;;;7.40;61.90;103128.84;4923272;28;45453;-72
2022/01/23 07:29:20;;;;;;;;;17.00;15.50;;;;;7.38;61.41;103127.94;4923872;28;45297;-72
2022/01/23 07:32:06;;;;;;;;;18.75;15.50;;;;;7.38;61.87;103126.19;4922894;28;46486;-73
2022/01/23 07:34:31;;;;;;;;;20.75;18.25;;;;;7.41;61.29;103131.53;4912677;28;45666;-73
2022/01/23 07:36:57;;;;;;;;;17.75;14.00;;;;;7.35;61.66;103118.16;4911638;28;45311;-72
2022/01/23 07:39:22;;;;;;;;;19.00;18.00;;;;;7.36;61.75;103116.38;4923820;28;45303;-73
2022/01/23 07:41:47;;;;;;;;;17.50;12.50;;;;;7.44;61.16;103137.78;4923488;28;46292;-72
2022/01/23 07:44:13;;;;;;;;;13.25;12.50;;;;;7.27;61.13;103110.88;4923730;28;45307;-72
2022/01/23 07:46:38;;;;;;;;;20.50;16.25;;;;;7.23;61.04;103126.78;4923809;28;45445;-73
2022/01/23 07:49:04;;;;;;;;;13.00;12.75;;;;;7.25;61.45;103126.81;4916370;28;45533;-73
2022/01/23 07:51:29;;;;;;;;;18.00;13.50;;;;;7.26;61.09;103122.38;4923365;28;46066;-72
2022/01/23 07:53:54;;;;;;;;;16.75;13.00;;;;;7.36;61.19;103129.66;4905322;28;45241;-73
2022/01/23 07:56:20;;;;;;;;;22.75;18.25;;;;;7.32;61.49;103119.84;4923188;28;45486;-73
2022/01/23 07:58:45;;;;;;;;;18.00;14.25;;;;;7.46;61.38;103130.75;4923699;28;45401;-72
2022/01/23 08:01:10;;;;;;;;;17.00;12.25;;;;;7.44;60.88;103129.81;4921303;28;45621;-73
2022/01/23 08:03:37;;;;;;;;;16.50;14.00;;;;;7.41;60.58;103136.84;4923200;28;45385;-74
2022/01/23 08:06:04;;;;;;;;;14.25;14.00;;;;;7.39;60.75;103150.97;4921659;28;45362;-73
2022/01/23 08:08:30;;;;;;;;;16.25;13.75;;;;;7.36;60.94;103143.84;4920546;28;45970;-73
2022/01/23 08:10:55;;;;;;;;;17.75;14.75;;;;;7.32;60.76;103134.03;4923222;28;46622;-72
2022/01/23 08:13:20;;;;;;;;;18.50;17.50;;;;;7.45;60.89;103156.44;4922973;28;45513;-72
2022/01/23 08:15:46;;;;;;;;;17.75;15.75;;;;;7.31;60.81;103145.50;4923611;28;45367;-72
2022/01/23 08:18:11;;;;;;;;;16.00;13.25;;;;;7.40;60.74;103159.00;4920538;28;45378;-72
2022/01/23 08:20:37;;;;;;;;;22.75;19.00;;;;;7.45;61.00;103160.81;4922922;28;46195;-71
2022/01/23 08:23:04;;;;;;;;;12.75;11.00;;;;;7.38;60.91;103144.78;4917251;28;45508;-72
2022/01/23 08:25:31;;;;;;;;;17.75;14.00;;;;;7.47;60.92;103151.13;4922084;28;45427;-73
2022/01/23 08:27:58;;;;;;;;;20.25;15.75;;;;;7.45;60.92;103148.47;4922084;28;45539;-71
2022/01/23 08:30:24;;;;;;;;;16.50;15.50;;;;;7.61;60.59;103171.78;4922777;28;45628;-74
2022/01/23 08:32:49;;;;;;;;;15.75;15.50;;;;;7.65;60.97;103154.16;4922959;28;45449;-75
2022/01/23 08:35:15;;;;;;;;;21.00;17.00;;;;;7.68;60.38;103162.16;4923187;28;45513;-75
2022/01/23 08:37:41;;;;;;;;;22.50;18.00;;;;;7.55;60.74;103146.84;4902505;28;45528;-75
2022/01/23 08:40:18;;;;;;;;;23.50;22.50;;;;;7.62;60.44;103164.72;4922266;28;45363;-75
2022/01/23 08:42:43;;;;;;;;;17.75;16.75;;;;;7.50;60.45;103157.41;4910649;28;45372;-74
2022/01/23 08:45:09;;;;;;;;;22.00;18.00;;;;;7.25;60.83;103108.22;4922922;28;45538;-74
2022/01/23 08:47:34;;;;;;;;;21.50;14.25;;;;;7.58;60.69;103163.78;4921122;28;45538;-74
2022/01/23 08:50:00;;;;;;;;;18.25;13.00;;;;;7.65;60.54;103169.19;4922613;28;45617;-74
2022/01/23 08:52:26;;;;;;;;;13.50;12.00;;;;;7.56;60.50;103159.28;4922082;28;45556;-74
2022/01/23 08:54:56;;;;;;;;;15.75;14.75;;;;;7.63;60.32;103171.81;4920360;28;45454;-75
2022/01/23 08:57:22;;;;;;;;;14.25;14.00;;;;;7.58;60.26;103173.47;4911934;28;45578;-76
2022/01/23 08:59:47;;;;;;;;;19.25;17.25;;;;;7.46;60.38;103157.31;4922493;28;45336;-76
2022/01/23 09:02:13;;;;;;;;;18.25;16.75;;;;;7.47;60.63;103169.72;4922614;28;45388;-76
2022/01/23 09:04:38;;;;;;;;;16.75;12.50;;;;;7.44;60.55;103159.06;4905095;28;45545;-75
2022/01/23 09:07:04;;;;;;;;;20.00;15.25;;;;;7.45;60.68;103167.06;4922178;28;45288;-76
2022/01/23 09:09:32;;;;;;;;;15.00;12.25;;;;;7.31;61.02;103149.94;4915117;28;47007;-74
2022/01/23 09:12:05;;;;;;;;;22.75;18.75;;;;;7.42;60.87;103173.19;4909571;28;45328;-72
2022/01/23 09:14:31;;;;;;;;;28.25;24.75;;;;;7.41;61.19;103171.38;4903971;28;45561;-72
2022/01/23 09:16:57;;;;;;;;;33.00;20.50;;;;;7.46;60.81;103173.25;4921873;28;45543;-72
2022/01/23 09:19:24;;;;;;;;;20.25;17.75;;;;;7.34;61.06;103150.00;4904554;28;47204;-72
2022/01/23 09:21:51;;;;;;;;;21.75;21.25;;;;;7.47;60.77;103160.00;4918907;28;45560;-74
2022/01/23 09:24:18;;;;;;;;;16.75;15.00;;;;;7.52;61.08;103174.28;4918169;28;45774;-76
2022/01/23 09:26:46;;;;;;;;;17.25;14.75;;;;;7.52;60.85;103174.28;4914746;28;45492;-76
2022/01/23 09:29:17;;;;;;;;;19.00;17.25;;;;;7.55;61.30;103174.34;4908418;28;48432;-76
2022/01/23 09:31:49;;;;;;;;;16.25;13.25;;;;;7.52;60.88;103170.72;4918512;28;45296;-76
2022/01/23 09:34:36;;;;;;;;;20.50;16.75;;;;;7.57;60.88;103187.66;4917331;28;45309;-76
2022/01/23 09:37:04;;;;;;;;;22.00;16.00;;;;;7.50;60.99;103191.03;4900253;28;45485;-74
2022/01/23 09:39:30;;;;;;;;;17.25;15.75;;;;;7.45;60.98;103198.03;4919913;28;45506;-73
2022/01/23 09:42:00;;;;;;;;;12.75;12.00;;;;;7.40;60.61;103190.88;4918687;28;45870;-73
2022/01/23 09:44:29;;;;;;;;;16.50;11.00;;;;;7.30;60.67;103180.94;4917956;28;45455;-73
2022/01/23 09:46:55;;;;;;;;;12.25;11.25;;;;;7.28;60.38;103189.72;4922183;28;45539;-73
2022/01/23 09:49:23;;;;;;;;;15.25;11.75;;;;;7.27;60.94;103178.22;4921814;28;46354;-74
2022/01/23 09:51:50;;;;;;;;;12.50;12.00;;;;;7.29;61.18;103179.13;4921422;28;45736;-74
2022/01/23 09:54:16;;;;;;;;;13.00;9.00;;;;;7.28;60.63;103174.66;4897545;28;45799;-74
2022/01/23 09:56:43;;;;;;;;;18.00;13.25;;;;;7.19;60.50;103164.75;4919514;28;45567;-76
2022/01/23 09:59:13;;;;;;;;;13.25;11.50;;;;;7.20;60.82;103176.28;4921695;28;45527;-76
2022/01/23 10:01:42;;;;;;;;;16.50;12.75;;;;;7.05;60.79;103156.50;4921824;28;45380;-76
2022/01/23 10:04:09;;;;;;;;;12.50;12.50;;;;;7.27;61.26;103179.94;4921980;28;45443;-76
2022/01/23 10:06:34;;;;;;;;;21.00;12.50;;;;;7.19;61.35;103174.50;4921746;28;45527;-76
2022/01/23 10:09:00;;;;;;;;;12.50;12.50;;;;;7.27;60.88;103175.56;4921693;28;46215;-75
2022/01/23 10:11:29;;;;;;;;;11.50;8.75;;;;;7.37;60.95;103181.97;4921693;28;45403;-69
2022/01/23 10:13:55;;;;;;;;;15.00;12.00;;;;;7.40;60.83;103180.25;4918423;28;45355;-70
2022/01/23 10:16:21;;;;;;;;;14.25;12.75;;;;;7.26;61.00;103162.25;4920065;28;45427;-70
2022/01/23 10:18:48;;;;;;;;;10.25;9.50;;;;;7.28;60.48;103174.66;4924037;28;45463;-69
2022/01/23 10:21:14;;;;;;;;;12.50;11.75;;;;;7.41;61.11;103187.34;4924683;28;45746;-69
2022/01/23 10:23:41;;;;;;;;;17.75;12.75;;;;;7.44;60.75;103190.94;4924881;28;45313;-71
2022/01/23 10:26:06;;;;;;;;;15.00;13.00;;;;;7.42;60.76;103178.50;4924697;28;45461;-72
2022/01/23 10:28:34;;;;;;;;;12.75;12.25;;;;;7.46;60.96;103187.44;4924940;28;47029;-71
2022/01/23 10:31:05;;;;;;;;;17.75;15.00;;;;;7.46;60.96;103178.56;4906758;28;45492;-67
2022/01/23 10:33:38;;;;;;;;;9.50;9.50;;;;;7.50;61.01;103181.34;4923605;28;45366;-65
2022/01/23 10:36:11;;;;;;;;;17.00;13.75;;;;;7.53;60.71;103180.47;4912405;28;45356;-70
2022/01/23 10:38:53;;;;;;;;;17.50;13.00;;;;;7.54;61.12;103182.28;4905721;28;48128;-70
2022/01/23 10:49:57;;;;;;;;;19.25;18.50;;;;;7.29;60.88;103154.34;4916422;28;45346;-68
2022/01/23 10:52:28;;;;;;;;;15.00;12.75;;;;;7.37;61.27;103169.56;4905603;28;45369;-70
2022/01/23 10:54:53;;;;;;;;;11.75;10.50;;;;;7.41;61.06;103168.72;4905662;28;45319;-73
2022/01/23 10:57:19;;;;;;;;;7.50;5.25;;;;;7.39;60.88;103165.16;4893204;28;45462;-72
2022/01/23 10:59:50;;;;;;;;;16.50;12.75;;;;;7.34;61.07;103164.16;4923605;28;45567;-72
2022/01/23 11:02:23;;;;;;;;;17.00;13.50;;;;;7.29;60.67;103162.31;4924128;28;45442;-72
2022/01/23 11:04:54;;;;;;;;;16.00;15.25;;;;;7.29;60.88;103164.97;4924630;28;45321;-72
2022/01/23 11:07:21;;;;;;;;;11.75;11.50;;;;;7.29;61.23;103159.66;4924452;28;45517;-72
2022/01/23 11:09:48;;;;;;;;;11.75;9.00;;;;;7.29;60.99;103154.34;4920791;28;45383;-70
2022/01/23 11:17:59;;;;;;;;;11.00;10.00;;;;;7.39;61.32;103151.88;4923311;28;45233;-72
2022/01/23 11:20:40;;;;;;;;;14.50;13.00;;;;;7.46;60.98;103154.66;4923537;28;46434;-74
2022/01/23 11:23:22;;;;;;;;;19.25;16.50;;;;;7.49;60.84;103150.28;4923528;28;45175;-74
2022/01/23 11:25:56;;;;;;;;;15.75;13.50;;;;;7.51;60.95;103142.34;4912277;28;46096;-71
2022/01/23 11:28:51;;;;;;;;;10.75;10.25;;;;;7.55;60.82;103137.13;4923949;28;45653;-72
2022/01/23 11:31:19;;;;;;;;;16.50;14.25;;;;;7.56;61.07;103138.00;4891692;28;47199;-72
2022/01/23 11:33:46;;;;;;;;;19.25;15.00;;;;;7.51;61.24;103124.63;4922165;28;45698;-73
2022/01/23 11:36:12;;;;;;;;;18.75;16.75;;;;;7.46;60.46;103120.09;4922523;28;45398;-73
2022/01/23 11:38:40;;;;;;;;;16.00;14.75;;;;;7.40;60.99;103116.47;4923292;28;45498;-73
2022/01/23 11:55:32;;;;;;;;;18.25;14.50;;;;;7.57;60.44;103118.56;4910730;28;45308;-73
2022/01/23 11:57:58;;;;;;;;;16.75;13.50;;;;;7.52;60.35;103114.91;4906678;28;45508;-73
2022/01/23 12:00:33;;;;;;;;;12.75;12.00;;;;;7.57;60.08;103103.50;4919089;28;45412;-74
2022/01/23 12:03:12;;;;;;;;;12.00;12.00;;;;;7.63;60.24;103107.13;4919821;28;45566;-74
2022/01/23 12:05:41;;;;;;;;;8.75;8.25;;;;;7.54;60.25;103100.78;4918023;28;45651;-72
2022/01/23 12:08:16;;;;;;;;;16.00;13.00;;;;;7.51;60.01;103095.41;4922898;28;45422;-72
2022/01/23 12:13:57;;;;;;;;;15.00;13.75;;;;;7.41;60.13;103099.63;4914205;28;46067;-71
2022/01/23 12:16:57;;;;;;;;;13.00;12.75;;;;;7.38;60.44;103104.94;4903386;28;47002;-71
2022/01/23 12:19:29;;;;;;;;;11.50;7.75;;;;;7.32;60.00;103094.19;4920867;28;45217;-71
2022/01/23 12:21:58;;;;;;;;;9.50;8.50;;;;;7.33;60.16;103082.66;4917929;28;45431;-71
2022/01/23 12:24:25;;;;;;;;;11.50;11.50;;;;;7.38;60.21;103093.38;4922963;28;46219;-71
2022/01/23 12:27:12;;;;;;;;;14.25;12.75;;;;;7.35;60.43;103069.41;4918440;28;46157;-71
2022/01/23 12:29:37;;;;;;;;;72.25;56.50;;;;;7.44;60.49;103074.91;4912269;28;45322;-71
2022/01/23 12:32:29;;;;;;;;;28.00;23.25;;;;;7.44;60.29;103068.69;4923075;28;45348;-72
2022/01/23 12:35:01;;;;;;;;;13.50;12.75;;;;;7.37;60.58;103059.72;4916204;28;46213;-72
2022/01/23 12:38:02;;;;;;;;;14.75;14.50;;;;;7.48;60.14;103067.88;4923307;28;45468;-72
2022/01/23 12:40:40;;;;;;;;;17.00;12.25;;;;;7.44;60.01;103061.63;4910355;28;45518;-71
2022/01/23 12:43:15;;;;;;;;;13.25;12.25;;;;;7.48;60.32;103054.59;4913478;28;45961;-72
2022/01/23 12:45:47;;;;;;;;;16.33;13.67;;;;;7.51;60.42;103047.56;4917190;28;47142;-72
2022/01/23 12:48:28;;;;;;;;;17.50;12.25;;;;;7.54;60.22;103041.41;4922377;28;48322;-72
2022/01/23 12:50:57;;;;;;;;;14.25;14.00;;;;;7.51;60.28;103038.69;4917431;28;45371;-72
2022/01/23 12:53:35;;;;;;;;;16.50;15.50;;;;;7.57;60.44;103034.38;4920282;28;45465;-72
2022/01/23 12:56:02;;;;;;;;;14.25;12.50;;;;;7.59;60.70;103029.09;4921463;28;46362;-71
2022/01/23 12:58:27;;;;;;;;;14.50;11.50;;;;;7.47;60.49;103007.59;4921062;28;45721;-71
2022/01/23 13:00:53;;;;;;;;;16.00;14.50;;;;;7.63;60.83;103024.72;4917812;28;45293;-71
2022/01/23 13:03:23;;;;;;;;;21.50;17.25;;;;;7.64;60.87;103022.09;4922135;28;45479;-71
2022/01/23 13:05:49;;;;;;;;;17.00;15.25;;;;;7.55;60.25;103009.53;4922400;28;47226;-72
2022/01/23 13:08:27;;;;;;;;;20.75;19.25;;;;;7.71;60.30;103025.75;4922319;28;45310;-72
2022/01/23 13:18:43;;;;;;;;;22.00;19.50;;;;;7.70;60.31;103008.91;4913995;28;45716;-72
2022/01/23 13:27:15;;;;;;;;;23.25;18.75;;;;;7.71;59.96;102992.06;4922198;28;45745;-71
2022/01/23 13:34:55;;;;;;;;;27.75;26.00;;;;;7.83;60.18;102990.47;4921661;28;45427;-71
2022/01/23 13:37:24;;;;;;;;;18.75;17.50;;;;;7.85;60.31;102988.72;4922108;28;46369;-71
2022/01/23 13:39:57;;;;;;;;;11.25;11.25;;;;;7.66;60.15;102964.50;4922152;28;45845;-71
2022/01/23 13:59:49;;;;;;;;;23.00;18.00;;;;;7.57;60.08;102951.09;4922539;28;45338;-71
2022/01/23 14:02:33;;;;;;;;;19.00;17.00;;;;;7.65;60.63;102953.84;4909227;28;45336;-71
2022/01/23 14:05:07;;;;;;;;;20.50;17.50;;;;;7.68;60.47;102948.59;4925265;28;45489;-71
2022/01/23 14:07:33;;;;;;;;;20.50;17.50;;;;;7.71;60.45;102944.22;4925315;28;45606;-71
2022/01/23 14:10:19;;;;;;;;;22.75;20.25;;;;;7.71;60.06;102941.56;4924453;28;46370;-71
2022/01/23 14:12:47;;;;;;;;;19.50;18.50;;;;;7.70;60.42;102942.44;4925308;28;45660;-71
2022/01/23 14:15:16;;;;;;;;;24.00;17.25;;;;;7.75;60.20;102938.09;4923993;28;45235;-71
2022/01/23 14:17:42;;;;;;;;;24.75;20.00;;;;;7.75;60.03;102942.47;4907778;28;45498;-71
2022/01/23 14:20:16;;;;;;;;;26.25;21.75;;;;;7.79;59.92;102945.22;4920952;28;45446;-71
2022/01/23 14:22:47;;;;;;;;;20.50;17.75;;;;;7.72;60.14;102926.50;4922783;28;45450;-71
2022/01/23 14:25:20;;;;;;;;;22.25;18.75;;;;;7.85;60.20;102932.88;4924997;28;45270;-71
2022/01/23 14:28:02;;;;;;;;;19.50;15.25;;;;;7.81;60.02;102926.63;4925163;28;45523;-71
2022/01/23 14:30:29;;;;;;;;;17.00;17.00;;;;;7.82;59.91;102932.81;4924364;28;45591;-71
2022/01/23 14:33:03;;;;;;;;;22.50;19.50;;;;;7.78;60.17;102927.50;4923242;28;45472;-71
2022/01/23 14:35:30;;;;;;;;;23.00;19.25;;;;;7.70;60.00;102913.19;4920191;28;45407;-71
2022/01/23 14:38:09;;;;;;;;;20.00;15.75;;;;;7.73;60.13;102912.34;4900231;28;45586;-71
2022/01/23 14:40:35;;;;;;;;;18.75;15.25;;;;;7.75;59.77;102926.53;4918812;28;47485;-71
2022/01/23 14:43:09;;;;;;;;;18.50;17.75;;;;;7.70;60.00;102923.84;4918597;28;45384;-71
2022/01/23 14:45:40;;;;;;;;;19.25;18.00;;;;;7.70;60.24;102925.56;4919747;28;45331;-71
2022/01/23 14:48:07;;;;;;;;;16.50;16.25;;;;;7.69;60.07;102918.50;4909038;28;45635;-71
2022/01/23 14:50:38;;;;;;;;;17.00;15.75;;;;;7.61;59.25;102900.63;4918618;28;45522;-71
2022/01/23 14:53:07;;;;;;;;;20.25;18.75;;;;;7.75;59.67;102908.84;4921172;28;45836;-71
2022/01/23 14:55:33;;;;;;;;;21.25;18.00;;;;;7.74;59.85;102914.13;4921091;28;45520;-71
2022/01/23 14:58:01;;;;;;;;;19.25;15.75;;;;;7.62;59.54;102904.22;4924543;28;45315;-71